sensor_id;sensor_type;location;lat;lon;timestamp;P1;durP1;ratioP1;P2;durP2;ratioP2
35306;SDS011;21420;52.196;21.416;2023-03-01T00:01:15;147.20;;;68.80;;
35306;SDS011;21420;52.196;21.416;2023-03-01T00:03:44;156.30;;;70.90;;
35306;SDS011;21420;52.196;21.416;2023-03-01T00:06:12;142.40;;;68.70;;
35306;SDS011;21420;52.196;21.416;2023-03-01T00:08:39;145.90;;;69.90;;
35306;SDS011;21420;52.196;21.416;2023-03-01T00:11:08;168.30;;;79.20;;
35306;SDS011;21420;52.196;21.416;2023-03-01T00:13:46;167.40;;;78.40;;
35306;SDS011;21420;52.196;21.416;2023-03-01T00:16:16;132.30;;;67.80;;
35306;SDS011;21420;52.196;21.416;2023-03-01T00:18:44;160.00;;;78.80;;
35306;SDS011;21420;52.196;21.416;2023-03-01T00:21:12;117.00;;;60.90;;
35306;SDS011;21420;52.196;21.416;2023-03-01T00:23:39;119.30;;;60.40;;
35306;SDS011;21420;52.196;21.416;2023-03-01T00:26:11;118.90;;;60.80;;
35306;SDS011;21420;52.196;21.416;2023-03-01T00:28:40;133.50;;;62.80;;
35306;SDS011;21420;52.196;21.416;2023-03-01T00:31:09;119.80;;;59.10;;
35306;SDS011;21420;52.196;21.416;2023-03-01T00:33:38;130.30;;;65.30;;
35306;SDS011;21420;52.196;21.416;2023-03-01T00:36:06;117.50;;;60.50;;
35306;SDS011;21420;52.196;21.416;2023-03-01T00:38:34;128.40;;;63.00;;
35306;SDS011;21420;52.196;21.416;2023-03-01T00:41:07;118.90;;;61.40;;
35306;SDS011;21420;52.196;21.416;2023-03-01T00:43:36;122.30;;;66.60;;
35306;SDS011;21420;52.196;21.416;2023-03-01T00:46:04;133.70;;;66.10;;
35306;SDS011;21420;52.196;21.416;2023-03-01T00:51:04;133.10;;;65.10;;
35306;SDS011;21420;52.196;21.416;2023-03-01T00:53:55;134.80;;;66.50;;
35306;SDS011;21420;52.196;21.416;2023-03-01T00:56:24;110.10;;;57.70;;
35306;SDS011;21420;52.196;21.416;2023-03-01T00:58:51;107.90;;;54.30;;
35306;SDS011;21420;52.196;21.416;2023-03-01T01:01:19;125.70;;;62.30;;
35306;SDS011;21420;52.196;21.416;2023-03-01T01:06:15;112.90;;;57.70;;
35306;SDS011;21420;52.196;21.416;2023-03-01T01:08:45;124.30;;;61.80;;
35306;SDS011;21420;52.196;21.416;2023-03-01T01:11:12;111.50;;;57.90;;
35306;SDS011;21420;52.196;21.416;2023-03-01T01:13:39;113.10;;;61.00;;
35306;SDS011;21420;52.196;21.416;2023-03-01T01:16:07;115.90;;;61.30;;
35306;SDS011;21420;52.196;21.416;2023-03-01T01:18:35;112.50;;;57.00;;
35306;SDS011;21420;52.196;21.416;2023-03-01T01:21:05;107.20;;;56.90;;
35306;SDS011;21420;52.196;21.416;2023-03-01T01:23:34;105.00;;;56.40;;
35306;SDS011;21420;52.196;21.416;2023-03-01T01:26:05;106.20;;;57.00;;
35306;SDS011;21420;52.196;21.416;2023-03-01T01:28:33;113.20;;;59.20;;
35306;SDS011;21420;52.196;21.416;2023-03-01T01:31:00;116.30;;;60.30;;
35306;SDS011;21420;52.196;21.416;2023-03-01T01:33:28;138.70;;;70.90;;
35306;SDS011;21420;52.196;21.416;2023-03-01T01:35:55;147.90;;;74.00;;
35306;SDS011;21420;52.196;21.416;2023-03-01T01:38:22;138.20;;;71.60;;
35306;SDS011;21420;52.196;21.416;2023-03-01T01:40:49;125.10;;;62.50;;
35306;SDS011;21420;52.196;21.416;2023-03-01T01:43:21;107.50;;;60.80;;
35306;SDS011;21420;52.196;21.416;2023-03-01T01:45:53;122.00;;;59.70;;
35306;SDS011;21420;52.196;21.416;2023-03-01T01:48:24;113.70;;;60.60;;
35306;SDS011;21420;52.196;21.416;2023-03-01T01:51:07;113.00;;;62.00;;
35306;SDS011;21420;52.196;21.416;2023-03-01T01:53:38;112.40;;;62.30;;
35306;SDS011;21420;52.196;21.416;2023-03-01T01:56:07;127.80;;;66.60;;
35306;SDS011;21420;52.196;21.416;2023-03-01T01:58:38;113.50;;;61.70;;
35306;SDS011;21420;52.196;21.416;2023-03-01T02:01:06;122.00;;;65.70;;
35306;SDS011;21420;52.196;21.416;2023-03-01T02:03:34;135.80;;;69.80;;
35306;SDS011;21420;52.196;21.416;2023-03-01T02:06:12;121.50;;;65.40;;
35306;SDS011;21420;52.196;21.416;2023-03-01T02:08:57;122.80;;;64.30;;
35306;SDS011;21420;52.196;21.416;2023-03-01T02:11:33;123.40;;;63.70;;
35306;SDS011;21420;52.196;21.416;2023-03-01T02:14:00;134.00;;;69.20;;
35306;SDS011;21420;52.196;21.416;2023-03-01T02:16:27;116.70;;;63.10;;
35306;SDS011;21420;52.196;21.416;2023-03-01T02:18:56;114.20;;;64.10;;
35306;SDS011;21420;52.196;21.416;2023-03-01T02:24:25;110.80;;;62.30;;
35306;SDS011;21420;52.196;21.416;2023-03-01T02:26:54;117.10;;;61.50;;
35306;SDS011;21420;52.196;21.416;2023-03-01T02:29:22;111.30;;;59.60;;
35306;SDS011;21420;52.196;21.416;2023-03-01T02:31:51;115.40;;;61.80;;
35306;SDS011;21420;52.196;21.416;2023-03-01T02:34:25;113.10;;;60.80;;
35306;SDS011;21420;52.196;21.416;2023-03-01T02:36:54;111.10;;;64.30;;
35306;SDS011;21420;52.196;21.416;2023-03-01T02:39:31;112.80;;;62.20;;
35306;SDS011;21420;52.196;21.416;2023-03-01T02:42:12;112.10;;;61.30;;
35306;SDS011;21420;52.196;21.416;2023-03-01T02:44:42;110.40;;;60.00;;
35306;SDS011;21420;52.196;21.416;2023-03-01T02:47:09;109.00;;;59.30;;
35306;SDS011;21420;52.196;21.416;2023-03-01T02:49:36;109.80;;;59.60;;
35306;SDS011;21420;52.196;21.416;2023-03-01T02:52:07;115.80;;;63.00;;
35306;SDS011;21420;52.196;21.416;2023-03-01T02:55:10;113.30;;;63.40;;
35306;SDS011;21420;52.196;21.416;2023-03-01T02:57:40;115.00;;;62.20;;
35306;SDS011;21420;52.196;21.416;2023-03-01T03:00:14;118.20;;;66.90;;
35306;SDS011;21420;52.196;21.416;2023-03-01T03:02:46;115.90;;;61.50;;
35306;SDS011;21420;52.196;21.416;2023-03-01T03:05:19;115.20;;;60.60;;
35306;SDS011;21420;52.196;21.416;2023-03-01T03:07:50;111.90;;;61.80;;
35306;SDS011;21420;52.196;21.416;2023-03-01T03:10:25;113.00;;;61.10;;
35306;SDS011;21420;52.196;21.416;2023-03-01T03:12:57;120.70;;;64.40;;
35306;SDS011;21420;52.196;21.416;2023-03-01T03:18:06;111.10;;;62.50;;
35306;SDS011;21420;52.196;21.416;2023-03-01T03:20:38;105.40;;;57.40;;
35306;SDS011;21420;52.196;21.416;2023-03-01T03:23:07;102.20;;;57.40;;
35306;SDS011;21420;52.196;21.416;2023-03-01T03:25:34;101.20;;;57.10;;
35306;SDS011;21420;52.196;21.416;2023-03-01T03:28:05;100.90;;;57.80;;
35306;SDS011;21420;52.196;21.416;2023-03-01T03:30:37;95.70;;;57.80;;
35306;SDS011;21420;52.196;21.416;2023-03-01T03:33:09;105.40;;;60.10;;
35306;SDS011;21420;52.196;21.416;2023-03-01T03:35:41;103.70;;;57.60;;
35306;SDS011;21420;52.196;21.416;2023-03-01T03:38:11;86.00;;;52.00;;
35306;SDS011;21420;52.196;21.416;2023-03-01T03:43:21;92.40;;;54.00;;
35306;SDS011;21420;52.196;21.416;2023-03-01T03:45:50;87.50;;;52.50;;
35306;SDS011;21420;52.196;21.416;2023-03-01T03:48:18;95.70;;;54.40;;
35306;SDS011;21420;52.196;21.416;2023-03-01T03:50:49;97.50;;;54.80;;
35306;SDS011;21420;52.196;21.416;2023-03-01T03:53:17;108.10;;;58.40;;
35306;SDS011;21420;52.196;21.416;2023-03-01T03:55:45;99.50;;;55.50;;
35306;SDS011;21420;52.196;21.416;2023-03-01T03:58:16;93.70;;;51.90;;
35306;SDS011;21420;52.196;21.416;2023-03-01T04:00:46;92.90;;;53.30;;
35306;SDS011;21420;52.196;21.416;2023-03-01T04:03:15;92.50;;;53.60;;
35306;SDS011;21420;52.196;21.416;2023-03-01T04:08:12;97.20;;;54.70;;
35306;SDS011;21420;52.196;21.416;2023-03-01T04:10:41;89.60;;;51.40;;
35306;SDS011;21420;52.196;21.416;2023-03-01T04:13:12;91.10;;;51.20;;
35306;SDS011;21420;52.196;21.416;2023-03-01T04:18:08;96.80;;;52.80;;
35306;SDS011;21420;52.196;21.416;2023-03-01T04:20:38;99.60;;;52.90;;
35306;SDS011;21420;52.196;21.416;2023-03-01T04:23:06;95.00;;;51.80;;
35306;SDS011;21420;52.196;21.416;2023-03-01T04:28:20;100.20;;;55.10;;
35306;SDS011;21420;52.196;21.416;2023-03-01T04:30:54;93.30;;;51.00;;
35306;SDS011;21420;52.196;21.416;2023-03-01T04:43:44;94.30;;;53.80;;
35306;SDS011;21420;52.196;21.416;2023-03-01T04:46:13;88.30;;;51.90;;
35306;SDS011;21420;52.196;21.416;2023-03-01T04:48:43;91.60;;;48.50;;
35306;SDS011;21420;52.196;21.416;2023-03-01T04:51:11;84.60;;;48.10;;
35306;SDS011;21420;52.196;21.416;2023-03-01T04:53:41;89.80;;;50.60;;
35306;SDS011;21420;52.196;21.416;2023-03-01T04:56:09;88.60;;;49.40;;
35306;SDS011;21420;52.196;21.416;2023-03-01T04:58:36;89.70;;;50.80;;
35306;SDS011;21420;52.196;21.416;2023-03-01T05:01:07;93.60;;;51.80;;
35306;SDS011;21420;52.196;21.416;2023-03-01T05:03:46;101.70;;;53.60;;
35306;SDS011;21420;52.196;21.416;2023-03-01T05:06:15;84.60;;;48.00;;
35306;SDS011;21420;52.196;21.416;2023-03-01T05:08:44;86.50;;;48.40;;
35306;SDS011;21420;52.196;21.416;2023-03-01T05:11:11;86.40;;;49.40;;
35306;SDS011;21420;52.196;21.416;2023-03-01T05:13:39;90.90;;;50.20;;
35306;SDS011;21420;52.196;21.416;2023-03-01T05:16:07;96.80;;;51.60;;
35306;SDS011;21420;52.196;21.416;2023-03-01T05:18:38;93.40;;;53.30;;
35306;SDS011;21420;52.196;21.416;2023-03-01T05:21:11;90.90;;;51.30;;
35306;SDS011;21420;52.196;21.416;2023-03-01T05:23:42;85.20;;;47.90;;
35306;SDS011;21420;52.196;21.416;2023-03-01T05:26:10;85.60;;;47.60;;
35306;SDS011;21420;52.196;21.416;2023-03-01T05:28:53;89.30;;;50.80;;
35306;SDS011;21420;52.196;21.416;2023-03-01T05:31:26;91.40;;;49.90;;
35306;SDS011;21420;52.196;21.416;2023-03-01T05:33:53;96.00;;;51.50;;
35306;SDS011;21420;52.196;21.416;2023-03-01T05:36:20;89.00;;;49.90;;
35306;SDS011;21420;52.196;21.416;2023-03-01T05:38:47;79.00;;;47.30;;
35306;SDS011;21420;52.196;21.416;2023-03-01T05:41:14;83.30;;;46.30;;
35306;SDS011;21420;52.196;21.416;2023-03-01T05:46:11;91.90;;;49.60;;
35306;SDS011;21420;52.196;21.416;2023-03-01T05:48:40;86.50;;;49.70;;
35306;SDS011;21420;52.196;21.416;2023-03-01T05:51:06;86.70;;;48.90;;
35306;SDS011;21420;52.196;21.416;2023-03-01T05:53:33;90.20;;;49.50;;
35306;SDS011;21420;52.196;21.416;2023-03-01T05:56:02;89.90;;;50.80;;
35306;SDS011;21420;52.196;21.416;2023-03-01T05:58:30;88.50;;;48.70;;
35306;SDS011;21420;52.196;21.416;2023-03-01T06:00:57;85.90;;;46.90;;
35306;SDS011;21420;52.196;21.416;2023-03-01T06:03:24;86.10;;;46.10;;
35306;SDS011;21420;52.196;21.416;2023-03-01T06:05:55;87.80;;;46.40;;
35306;SDS011;21420;52.196;21.416;2023-03-01T06:08:23;86.40;;;48.00;;
35306;SDS011;21420;52.196;21.416;2023-03-01T06:10:51;87.70;;;47.30;;
35306;SDS011;21420;52.196;21.416;2023-03-01T06:13:18;79.30;;;45.80;;
35306;SDS011;21420;52.196;21.416;2023-03-01T06:15:44;87.60;;;49.60;;
35306;SDS011;21420;52.196;21.416;2023-03-01T06:18:11;83.90;;;47.80;;
35306;SDS011;21420;52.196;21.416;2023-03-01T06:20:38;76.90;;;45.40;;
35306;SDS011;21420;52.196;21.416;2023-03-01T06:23:05;77.40;;;43.80;;
35306;SDS011;21420;52.196;21.416;2023-03-01T06:25:33;83.30;;;47.50;;
35306;SDS011;21420;52.196;21.416;2023-03-01T06:28:00;84.90;;;48.10;;
35306;SDS011;21420;52.196;21.416;2023-03-01T06:30:27;84.90;;;49.30;;
35306;SDS011;21420;52.196;21.416;2023-03-01T06:32:54;90.80;;;50.50;;
35306;SDS011;21420;52.196;21.416;2023-03-01T06:35:30;83.00;;;48.30;;
35306;SDS011;21420;52.196;21.416;2023-03-01T06:37:58;87.70;;;49.30;;
35306;SDS011;21420;52.196;21.416;2023-03-01T06:40:27;82.20;;;47.10;;
35306;SDS011;21420;52.196;21.416;2023-03-01T06:42:54;79.60;;;49.30;;
35306;SDS011;21420;52.196;21.416;2023-03-01T06:45:21;79.40;;;49.40;;
35306;SDS011;21420;52.196;21.416;2023-03-01T06:47:48;85.30;;;49.80;;
35306;SDS011;21420;52.196;21.416;2023-03-01T06:50:16;76.40;;;46.80;;
35306;SDS011;21420;52.196;21.416;2023-03-01T06:52:44;84.50;;;49.20;;
35306;SDS011;21420;52.196;21.416;2023-03-01T06:55:12;75.50;;;48.70;;
35306;SDS011;21420;52.196;21.416;2023-03-01T06:57:40;79.90;;;46.80;;
35306;SDS011;21420;52.196;21.416;2023-03-01T07:00:07;81.00;;;48.10;;
35306;SDS011;21420;52.196;21.416;2023-03-01T07:02:35;77.60;;;49.10;;
35306;SDS011;21420;52.196;21.416;2023-03-01T07:05:02;77.10;;;46.70;;
35306;SDS011;21420;52.196;21.416;2023-03-01T07:07:29;77.60;;;47.10;;
35306;SDS011;21420;52.196;21.416;2023-03-01T07:09:56;71.20;;;45.70;;
35306;SDS011;21420;52.196;21.416;2023-03-01T07:12:22;71.40;;;44.80;;
35306;SDS011;21420;52.196;21.416;2023-03-01T07:14:49;70.30;;;46.30;;
35306;SDS011;21420;52.196;21.416;2023-03-01T07:17:16;69.70;;;43.70;;
35306;SDS011;21420;52.196;21.416;2023-03-01T07:19:43;68.60;;;44.00;;
35306;SDS011;21420;52.196;21.416;2023-03-01T07:22:11;69.00;;;45.60;;
35306;SDS011;21420;52.196;21.416;2023-03-01T07:24:38;72.40;;;46.50;;
35306;SDS011;21420;52.196;21.416;2023-03-01T07:27:05;68.80;;;44.40;;
35306;SDS011;21420;52.196;21.416;2023-03-01T07:29:32;72.40;;;45.40;;
35306;SDS011;21420;52.196;21.416;2023-03-01T07:31:59;72.90;;;45.80;;
35306;SDS011;21420;52.196;21.416;2023-03-01T07:34:26;60.80;;;43.70;;
35306;SDS011;21420;52.196;21.416;2023-03-01T07:36:53;67.10;;;44.60;;
35306;SDS011;21420;52.196;21.416;2023-03-01T07:39:19;62.90;;;44.10;;
35306;SDS011;21420;52.196;21.416;2023-03-01T07:41:46;61.00;;;41.80;;
35306;SDS011;21420;52.196;21.416;2023-03-01T07:44:13;64.00;;;43.10;;
35306;SDS011;21420;52.196;21.416;2023-03-01T07:46:41;66.60;;;42.10;;
35306;SDS011;21420;52.196;21.416;2023-03-01T07:49:08;62.20;;;43.20;;
35306;SDS011;21420;52.196;21.416;2023-03-01T07:51:35;63.90;;;43.70;;
35306;SDS011;21420;52.196;21.416;2023-03-01T07:54:02;62.10;;;42.30;;
35306;SDS011;21420;52.196;21.416;2023-03-01T07:56:29;60.30;;;41.30;;
35306;SDS011;21420;52.196;21.416;2023-03-01T07:58:58;58.50;;;41.40;;
35306;SDS011;21420;52.196;21.416;2023-03-01T08:01:26;59.00;;;40.70;;
35306;SDS011;21420;52.196;21.416;2023-03-01T08:03:53;56.60;;;38.70;;
35306;SDS011;21420;52.196;21.416;2023-03-01T08:06:20;55.30;;;39.60;;
35306;SDS011;21420;52.196;21.416;2023-03-01T08:08:47;53.00;;;38.60;;
35306;SDS011;21420;52.196;21.416;2023-03-01T08:11:14;53.20;;;38.00;;
35306;SDS011;21420;52.196;21.416;2023-03-01T08:13:42;49.50;;;35.90;;
35306;SDS011;21420;52.196;21.416;2023-03-01T08:16:11;43.40;;;30.50;;
35306;SDS011;21420;52.196;21.416;2023-03-01T08:18:39;40.40;;;30.30;;
35306;SDS011;21420;52.196;21.416;2023-03-01T08:21:08;40.10;;;29.70;;
35306;SDS011;21420;52.196;21.416;2023-03-01T08:23:37;40.60;;;29.30;;
35306;SDS011;21420;52.196;21.416;2023-03-01T08:28:36;44.90;;;30.10;;
35306;SDS011;21420;52.196;21.416;2023-03-01T08:31:03;39.50;;;29.60;;
35306;SDS011;21420;52.196;21.416;2023-03-01T08:33:39;41.60;;;29.60;;
35306;SDS011;21420;52.196;21.416;2023-03-01T08:36:08;39.20;;;30.20;;
35306;SDS011;21420;52.196;21.416;2023-03-01T08:38:35;41.90;;;30.20;;
35306;SDS011;21420;52.196;21.416;2023-03-01T08:41:02;37.60;;;28.90;;
35306;SDS011;21420;52.196;21.416;2023-03-01T08:43:30;38.10;;;29.60;;
35306;SDS011;21420;52.196;21.416;2023-03-01T08:45:57;32.40;;;27.30;;
35306;SDS011;21420;52.196;21.416;2023-03-01T08:48:24;38.10;;;29.30;;
35306;SDS011;21420;52.196;21.416;2023-03-01T08:50:51;41.20;;;31.50;;
35306;SDS011;21420;52.196;21.416;2023-03-01T08:53:18;43.20;;;31.80;;
35306;SDS011;21420;52.196;21.416;2023-03-01T08:55:45;43.50;;;30.70;;
35306;SDS011;21420;52.196;21.416;2023-03-01T08:58:15;39.80;;;28.70;;
35306;SDS011;21420;52.196;21.416;2023-03-01T09:00:45;36.40;;;28.60;;
35306;SDS011;21420;52.196;21.416;2023-03-01T09:03:12;39.00;;;28.30;;
35306;SDS011;21420;52.196;21.416;2023-03-01T09:05:39;37.80;;;28.70;;
35306;SDS011;21420;52.196;21.416;2023-03-01T09:08:06;34.00;;;26.80;;
35306;SDS011;21420;52.196;21.416;2023-03-01T09:10:37;35.90;;;25.90;;
35306;SDS011;21420;52.196;21.416;2023-03-01T09:13:05;35.70;;;25.10;;
35306;SDS011;21420;52.196;21.416;2023-03-01T09:15:32;30.50;;;23.30;;
35306;SDS011;21420;52.196;21.416;2023-03-01T09:18:00;27.60;;;21.10;;
35306;SDS011;21420;52.196;21.416;2023-03-01T09:20:26;29.70;;;21.40;;
35306;SDS011;21420;52.196;21.416;2023-03-01T09:22:53;27.40;;;19.90;;
35306;SDS011;21420;52.196;21.416;2023-03-01T09:25:20;25.20;;;19.30;;
35306;SDS011;21420;52.196;21.416;2023-03-01T09:27:47;27.60;;;20.60;;
35306;SDS011;21420;52.196;21.416;2023-03-01T09:30:17;20.90;;;16.90;;
35306;SDS011;21420;52.196;21.416;2023-03-01T09:32:45;22.90;;;17.50;;
35306;SDS011;21420;52.196;21.416;2023-03-01T09:35:12;25.90;;;18.10;;
35306;SDS011;21420;52.196;21.416;2023-03-01T09:37:39;25.00;;;18.10;;
35306;SDS011;21420;52.196;21.416;2023-03-01T09:40:12;22.60;;;16.50;;
35306;SDS011;21420;52.196;21.416;2023-03-01T09:45:47;24.30;;;17.80;;
35306;SDS011;21420;52.196;21.416;2023-03-01T09:50:48;22.50;;;18.40;;
35306;SDS011;21420;52.196;21.416;2023-03-01T09:53:17;22.30;;;17.70;;
35306;SDS011;21420;52.196;21.416;2023-03-01T10:01:03;21.90;;;16.40;;
35306;SDS011;21420;52.196;21.416;2023-03-01T10:03:47;22.40;;;16.20;;
35306;SDS011;21420;52.196;21.416;2023-03-01T10:06:37;15.90;;;13.10;;
35306;SDS011;21420;52.196;21.416;2023-03-01T10:09:12;16.90;;;13.30;;
35306;SDS011;21420;52.196;21.416;2023-03-01T10:11:47;17.20;;;14.00;;
35306;SDS011;21420;52.196;21.416;2023-03-01T10:17:08;18.60;;;14.00;;
35306;SDS011;21420;52.196;21.416;2023-03-01T10:19:40;17.10;;;14.80;;
35306;SDS011;21420;52.196;21.416;2023-03-01T10:24:51;18.40;;;14.10;;
35306;SDS011;21420;52.196;21.416;2023-03-01T10:27:24;19.40;;;14.80;;
35306;SDS011;21420;52.196;21.416;2023-03-01T10:30:02;18.90;;;14.20;;
35306;SDS011;21420;52.196;21.416;2023-03-01T10:32:38;17.60;;;13.60;;
35306;SDS011;21420;52.196;21.416;2023-03-01T10:35:16;17.20;;;13.70;;
35306;SDS011;21420;52.196;21.416;2023-03-01T10:37:57;21.70;;;15.40;;
35306;SDS011;21420;52.196;21.416;2023-03-01T10:40:59;17.30;;;12.70;;
35306;SDS011;21420;52.196;21.416;2023-03-01T10:43:46;17.70;;;13.20;;
35306;SDS011;21420;52.196;21.416;2023-03-01T10:51:48;17.60;;;13.20;;
35306;SDS011;21420;52.196;21.416;2023-03-01T10:54:38;14.60;;;12.40;;
35306;SDS011;21420;52.196;21.416;2023-03-01T10:57:09;16.70;;;13.50;;
35306;SDS011;21420;52.196;21.416;2023-03-01T11:00:29;19.10;;;14.30;;
35306;SDS011;21420;52.196;21.416;2023-03-01T11:03:09;14.80;;;13.20;;
35306;SDS011;21420;52.196;21.416;2023-03-01T11:06:00;17.30;;;13.50;;
35306;SDS011;21420;52.196;21.416;2023-03-01T11:08:49;16.60;;;12.50;;
35306;SDS011;21420;52.196;21.416;2023-03-01T11:13:57;17.90;;;12.70;;
35306;SDS011;21420;52.196;21.416;2023-03-01T11:17:00;14.20;;;12.70;;
35306;SDS011;21420;52.196;21.416;2023-03-01T11:19:29;17.90;;;13.60;;
35306;SDS011;21420;52.196;21.416;2023-03-01T11:22:02;17.50;;;13.30;;
35306;SDS011;21420;52.196;21.416;2023-03-01T11:24:45;17.00;;;13.30;;
35306;SDS011;21420;52.196;21.416;2023-03-01T11:27:31;16.70;;;13.20;;
35306;SDS011;21420;52.196;21.416;2023-03-01T11:30:00;17.40;;;12.70;;
35306;SDS011;21420;52.196;21.416;2023-03-01T11:32:34;18.50;;;13.70;;
35306;SDS011;21420;52.196;21.416;2023-03-01T11:40:34;16.40;;;13.00;;
35306;SDS011;21420;52.196;21.416;2023-03-01T11:45:53;13.50;;;11.00;;
35306;SDS011;21420;52.196;21.416;2023-03-01T11:51:38;19.00;;;13.90;;
35306;SDS011;21420;52.196;21.416;2023-03-01T12:03:27;15.60;;;11.00;;
35306;SDS011;21420;52.196;21.416;2023-03-01T12:06:05;16.70;;;12.10;;
35306;SDS011;21420;52.196;21.416;2023-03-01T12:09:30;19.40;;;12.70;;
35306;SDS011;21420;52.196;21.416;2023-03-01T12:42:36;10.80;;;9.30;;
35306;SDS011;21420;52.196;21.416;2023-03-01T12:51:20;15.20;;;10.70;;
35306;SDS011;21420;52.196;21.416;2023-03-01T12:53:53;14.30;;;11.60;;
35306;SDS011;21420;52.196;21.416;2023-03-01T12:56:23;15.10;;;11.50;;
35306;SDS011;21420;52.196;21.416;2023-03-01T13:07:35;12.50;;;10.20;;
35306;SDS011;21420;52.196;21.416;2023-03-01T13:15:46;15.40;;;11.50;;
35306;SDS011;21420;52.196;21.416;2023-03-01T13:20:52;11.60;;;10.00;;
35306;SDS011;21420;52.196;21.416;2023-03-01T13:23:30;13.50;;;9.30;;
35306;SDS011;21420;52.196;21.416;2023-03-01T13:26:16;13.80;;;10.50;;
35306;SDS011;21420;52.196;21.416;2023-03-01T13:34:03;18.50;;;11.80;;
35306;SDS011;21420;52.196;21.416;2023-03-01T13:39:04;18.40;;;12.10;;
35306;SDS011;21420;52.196;21.416;2023-03-01T13:41:53;20.40;;;12.10;;
35306;SDS011;21420;52.196;21.416;2023-03-01T13:49:41;18.50;;;12.00;;
35306;SDS011;21420;52.196;21.416;2023-03-01T13:57:41;15.80;;;11.20;;
35306;SDS011;21420;52.196;21.416;2023-03-01T14:03:05;18.20;;;12.10;;
35306;SDS011;21420;52.196;21.416;2023-03-01T14:05:35;18.50;;;12.60;;
35306;SDS011;21420;52.196;21.416;2023-03-01T14:08:04;16.30;;;12.30;;
35306;SDS011;21420;52.196;21.416;2023-03-01T14:10:42;17.60;;;13.30;;
35306;SDS011;21420;52.196;21.416;2023-03-01T14:24:51;20.10;;;12.50;;
35306;SDS011;21420;52.196;21.416;2023-03-01T14:27:21;16.40;;;12.30;;
35306;SDS011;21420;52.196;21.416;2023-03-01T14:29:57;19.10;;;13.10;;
35306;SDS011;21420;52.196;21.416;2023-03-01T14:32:26;20.30;;;12.70;;
35306;SDS011;21420;52.196;21.416;2023-03-01T14:34:55;18.50;;;14.10;;
35306;SDS011;21420;52.196;21.416;2023-03-01T14:39:54;18.40;;;13.20;;
35306;SDS011;21420;52.196;21.416;2023-03-01T14:42:23;14.90;;;12.00;;
35306;SDS011;21420;52.196;21.416;2023-03-01T14:44:54;14.30;;;11.00;;
35306;SDS011;21420;52.196;21.416;2023-03-01T14:49:57;18.90;;;12.60;;
35306;SDS011;21420;52.196;21.416;2023-03-01T14:52:37;14.30;;;9.60;;
35306;SDS011;21420;52.196;21.416;2023-03-01T14:55:44;19.80;;;14.80;;
35306;SDS011;21420;52.196;21.416;2023-03-01T14:58:15;20.00;;;14.80;;
35306;SDS011;21420;52.196;21.416;2023-03-01T15:00:50;20.60;;;14.60;;
35306;SDS011;21420;52.196;21.416;2023-03-01T15:03:27;21.00;;;15.40;;
35306;SDS011;21420;52.196;21.416;2023-03-01T15:05:57;22.20;;;15.40;;
35306;SDS011;21420;52.196;21.416;2023-03-01T15:08:25;25.10;;;16.70;;
35306;SDS011;21420;52.196;21.416;2023-03-01T15:11:03;23.30;;;16.80;;
35306;SDS011;21420;52.196;21.416;2023-03-01T15:13:42;24.70;;;16.60;;
35306;SDS011;21420;52.196;21.416;2023-03-01T15:16:12;23.60;;;16.70;;
35306;SDS011;21420;52.196;21.416;2023-03-01T15:18:46;21.10;;;15.80;;
35306;SDS011;21420;52.196;21.416;2023-03-01T15:24:05;22.90;;;15.40;;
35306;SDS011;21420;52.196;21.416;2023-03-01T15:26:57;22.80;;;15.90;;
35306;SDS011;21420;52.196;21.416;2023-03-01T15:29:33;27.10;;;17.80;;
35306;SDS011;21420;52.196;21.416;2023-03-01T15:34:52;25.10;;;18.10;;
35306;SDS011;21420;52.196;21.416;2023-03-01T15:40:22;23.80;;;17.10;;
35306;SDS011;21420;52.196;21.416;2023-03-01T15:43:04;26.60;;;17.90;;
35306;SDS011;21420;52.196;21.416;2023-03-01T15:45:33;31.60;;;19.70;;
35306;SDS011;21420;52.196;21.416;2023-03-01T15:48:01;25.80;;;16.90;;
35306;SDS011;21420;52.196;21.416;2023-03-01T15:50:32;30.10;;;19.70;;
35306;SDS011;21420;52.196;21.416;2023-03-01T15:53:04;31.70;;;20.60;;
35306;SDS011;21420;52.196;21.416;2023-03-01T15:55:34;32.10;;;22.20;;
35306;SDS011;21420;52.196;21.416;2023-03-01T16:01:08;41.80;;;26.70;;
35306;SDS011;21420;52.196;21.416;2023-03-01T16:03:39;38.70;;;25.10;;
35306;SDS011;21420;52.196;21.416;2023-03-01T16:06:08;36.10;;;24.10;;
35306;SDS011;21420;52.196;21.416;2023-03-01T16:11:04;44.00;;;30.20;;
35306;SDS011;21420;52.196;21.416;2023-03-01T16:13:40;57.90;;;33.50;;
35306;SDS011;21420;52.196;21.416;2023-03-01T16:16:09;70.80;;;40.70;;
35306;SDS011;21420;52.196;21.416;2023-03-01T16:18:39;106.30;;;58.40;;
35306;SDS011;21420;52.196;21.416;2023-03-01T16:21:08;100.10;;;55.00;;
35306;SDS011;21420;52.196;21.416;2023-03-01T16:23:39;86.50;;;47.10;;
35306;SDS011;21420;52.196;21.416;2023-03-01T16:26:06;90.00;;;48.10;;
35306;SDS011;21420;52.196;21.416;2023-03-01T16:28:34;87.10;;;47.20;;
35306;SDS011;21420;52.196;21.416;2023-03-01T16:31:01;49.10;;;30.60;;
35306;SDS011;21420;52.196;21.416;2023-03-01T16:33:28;48.30;;;31.70;;
35306;SDS011;21420;52.196;21.416;2023-03-01T16:36:09;51.00;;;30.30;;
35306;SDS011;21420;52.196;21.416;2023-03-01T16:38:38;58.30;;;35.10;;
35306;SDS011;21420;52.196;21.416;2023-03-01T16:41:05;78.00;;;44.20;;
35306;SDS011;21420;52.196;21.416;2023-03-01T16:43:38;112.40;;;57.90;;
35306;SDS011;21420;52.196;21.416;2023-03-01T16:46:13;273.70;;;141.80;;
35306;SDS011;21420;52.196;21.416;2023-03-01T16:48:45;183.10;;;102.00;;
35306;SDS011;21420;52.196;21.416;2023-03-01T16:51:13;118.30;;;68.50;;
35306;SDS011;21420;52.196;21.416;2023-03-01T16:53:41;122.70;;;70.50;;
35306;SDS011;21420;52.196;21.416;2023-03-01T16:56:09;79.10;;;46.00;;
35306;SDS011;21420;52.196;21.416;2023-03-01T16:58:37;78.70;;;43.90;;
35306;SDS011;21420;52.196;21.416;2023-03-01T17:01:18;121.60;;;56.70;;
35306;SDS011;21420;52.196;21.416;2023-03-01T17:03:47;83.20;;;44.10;;
35306;SDS011;21420;52.196;21.416;2023-03-01T17:06:17;63.20;;;35.80;;
35306;SDS011;21420;52.196;21.416;2023-03-01T17:08:46;66.20;;;38.90;;
35306;SDS011;21420;52.196;21.416;2023-03-01T17:11:17;61.80;;;35.80;;
35306;SDS011;21420;52.196;21.416;2023-03-01T17:13:45;96.30;;;52.00;;
35306;SDS011;21420;52.196;21.416;2023-03-01T17:16:14;96.10;;;57.90;;
35306;SDS011;21420;52.196;21.416;2023-03-01T17:18:44;93.90;;;50.70;;
35306;SDS011;21420;52.196;21.416;2023-03-01T17:21:11;89.20;;;48.30;;
35306;SDS011;21420;52.196;21.416;2023-03-01T17:23:39;63.70;;;36.70;;
35306;SDS011;21420;52.196;21.416;2023-03-01T17:26:09;59.30;;;35.70;;
35306;SDS011;21420;52.196;21.416;2023-03-01T17:28:36;58.00;;;33.70;;
35306;SDS011;21420;52.196;21.416;2023-03-01T17:31:04;60.80;;;35.60;;
35306;SDS011;21420;52.196;21.416;2023-03-01T17:33:32;59.70;;;34.60;;
35306;SDS011;21420;52.196;21.416;2023-03-01T17:35:59;134.50;;;74.30;;